Time;durP1;ratioP1;P1;durP2;ratioP2;P2;SDS_P1;SDS_P2;PMS_P1;PMS_P2;Temp;Humidity;BMP_temperature;BMP_pressure;BME280_temperature;BME280_humidity;BME280_pressure;Samples;Min_cycle;Max_cycle;Signal;HPM_P1;HPM_P2
2022/01/01 00:01:41;;;;;;;20.00;3.88;;;26.70;91.60;;;;;;5130908;27;20438;-81
2022/01/01 00:04:08;;;;;;;4.95;1.33;;;26.70;92.80;;;;;;5130767;27;20480;-83
2022/01/01 00:06:35;;;;;;;6.07;1.50;;;26.60;92.70;;;;;;5130459;27;20389;-84
2022/01/01 00:09:03;;;;;;;4.13;1.00;;;26.90;91.10;;;;;;5130375;27;20373;-77
2022/01/01 00:11:30;;;;;;;5.35;1.20;;;26.90;91.20;;;;;;5130085;27;20368;-78
2022/01/01 00:13:57;;;;;;;3.03;1.03;;;26.80;92.40;;;;;;5130102;27;20368;-80
2022/01/01 00:16:24;;;;;;;4.37;1.10;;;27.50;90.70;;;;;;5111623;27;20799;-81
2022/01/01 00:18:51;;;;;;;4.00;1.20;;;27.70;88.00;;;;;;5129934;27;20377;-81
2022/01/01 00:21:18;;;;;;;5.40;1.20;;;27.60;88.60;;;;;;5111655;27;20402;-81
2022/01/01 00:23:45;;;;;;;3.97;1.08;;;27.70;90.00;;;;;;5129906;27;20409;-83
2022/01/01 00:26:12;;;;;;;2.15;0.90;;;28.00;90.00;;;;;;5111620;27;20385;-85
2022/01/01 00:28:39;;;;;;;3.67;1.00;;;28.20;83.10;;;;;;5130120;27;20369;-78
2022/01/01 00:31:07;;;;;;;3.57;1.10;;;28.40;83.80;;;;;;5129919;27;20384;-82
2022/01/01 00:33:34;;;;;;;3.20;1.00;;;28.80;84.30;;;;;;5111373;27;20374;-81
2022/01/01 00:36:01;;;;;;;4.18;1.10;;;29.30;80.40;;;;;;5130116;27;20721;-85
2022/01/01 00:38:28;;;;;;;2.60;0.90;;;29.20;76.50;;;;;;5129421;27;20368;-85
2022/01/01 00:40:55;;;;;;;3.72;1.13;;;29.60;76.10;;;;;;5129447;27;20426;-79
2022/01/01 00:43:24;;;;;;;3.00;0.98;;;29.80;73.90;;;;;;5129592;27;20499;-76
2022/01/01 00:45:51;;;;;;;5.25;1.17;;;29.80;74.90;;;;;;5129572;27;20423;-87
2022/01/01 00:48:18;;;;;;;5.70;1.08;;;30.00;74.80;;;;;;5112861;27;20365;-91
2022/01/01 00:50:45;;;;;;;2.43;0.90;;;30.00;72.90;;;;;;5111782;27;20369;-91
2022/01/01 00:53:12;;;;;;;3.75;1.00;;;30.20;71.40;;;;;;5111733;27;20760;-89
2022/01/01 00:55:39;;;;;;;3.05;1.10;;;30.00;72.00;;;;;;5129766;27;20503;-87
2022/01/01 00:58:06;;;;;;;3.95;1.10;;;29.60;72.50;;;;;;5129858;27;20778;-91
2022/01/01 01:00:33;;;;;;;3.30;0.93;;;29.30;73.20;;;;;;5111244;27;20401;-93
2022/01/01 01:03:00;;;;;;;4.10;0.95;;;29.50;77.30;;;;;;5111195;27;20372;-92
2022/01/01 01:05:27;;;;;;;4.20;1.10;;;30.30;75.40;;;;;;5130254;27;20528;-90
2022/01/01 01:07:54;;;;;;;4.28;1.00;;;30.70;68.50;;;;;;5111681;27;20747;-90
2022/01/01 01:10:21;;;;;;;4.30;1.00;;;30.50;67.80;;;;;;5111835;28;20384;-89
2022/01/01 01:12:48;;;;;;;2.97;1.02;;;30.60;70.90;;;;;;5129556;27;20361;-93
2022/01/01 01:15:19;;;;;;;4.40;1.02;;;30.40;69.40;;;;;;5111214;27;20385;-91
2022/01/01 01:17:51;;;;;;;2.80;0.95;;;30.10;70.70;;;;;;5129807;27;20361;-92
2022/01/01 01:20:19;;;;;;;5.40;1.10;;;30.20;68.80;;;;;;5129702;28;20383;-91
2022/01/01 01:22:48;;;;;;;2.80;1.00;;;30.30;69.40;;;;;;5111435;28;20397;-92
2022/01/01 01:25:16;;;;;;;3.45;1.00;;;30.50;70.00;;;;;;5111381;28;20404;-91
2022/01/01 01:27:44;;;;;;;3.53;1.13;;;31.10;68.10;;;;;;5130661;28;20372;-93
2022/01/01 01:30:16;;;;;;;2.63;0.98;;;31.20;68.30;;;;;;5131950;28;20485;-90
2022/01/01 01:32:45;;;;;;;3.42;1.00;;;31.40;66.30;;;;;;5129503;28;20360;-89
2022/01/01 01:35:14;;;;;;;3.80;0.90;;;31.10;66.50;;;;;;5129482;28;20456;-90
2022/01/01 01:37:42;;;;;;;3.53;1.00;;;30.90;66.10;;;;;;5130112;28;20483;-91
2022/01/01 01:40:09;;;;;;;6.70;1.00;;;30.60;66.30;;;;;;5129620;28;20400;-90
2022/01/01 01:42:36;;;;;;;3.13;1.00;;;30.50;66.20;;;;;;5110876;28;20405;-90
2022/01/01 01:45:12;;;;;;;3.90;0.90;;;30.60;66.60;;;;;;5110774;28;20432;-90
2022/01/01 01:47:39;;;;;;;2.60;0.80;;;30.50;66.70;;;;;;5111013;28;20417;-90
2022/01/01 01:50:08;;;;;;;2.92;0.80;;;31.00;64.70;;;;;;5131261;27;20373;-89
2022/01/01 01:52:37;;;;;;;2.90;0.85;;;31.30;63.10;;;;;;5135177;27;20364;-90
2022/01/01 01:55:10;;;;;;;3.25;0.85;;;31.50;63.40;;;;;;5133886;27;20368;-90
2022/01/01 01:57:39;;;;;;;3.90;0.90;;;31.80;61.60;;;;;;5115060;27;20400;-91
2022/01/01 02:00:19;;;;;;;3.23;0.83;;;32.00;62.10;;;;;;5133373;27;20876;-90
2022/01/01 02:02:46;;;;;;;4.07;0.82;;;32.60;59.80;;;;;;5114938;27;20390;-91
2022/01/01 02:05:13;;;;;;;2.03;0.82;;;33.10;59.60;;;;;;5114560;27;20405;-93
2022/01/01 02:07:41;;;;;;;1.77;0.70;;;33.50;55.50;;;;;;5133289;27;20397;-91
2022/01/01 02:10:09;;;;;;;2.70;0.80;;;33.60;57.20;;;;;;5114869;27;20381;-89
2022/01/01 02:12:38;;;;;;;2.35;0.88;;;33.50;54.80;;;;;;5132841;27;20399;-87
2022/01/01 02:17:36;;;;;;;2.85;0.80;;;33.90;56.00;;;;;;5134452;27;20403;-92
2022/01/01 02:20:18;;;;;;;2.78;1.00;;;34.60;55.60;;;;;;5114417;27;20385;-90
2022/01/01 02:22:50;;;;;;;2.22;0.93;;;34.40;52.60;;;;;;5132743;27;20357;-88
2022/01/01 02:25:18;;;;;;;2.33;0.88;;;34.30;55.20;;;;;;5132770;27;20385;-86
2022/01/01 02:27:46;;;;;;;3.13;0.90;;;34.40;54.10;;;;;;5132710;27;20737;-87
2022/01/01 02:30:15;;;;;;;2.05;0.77;;;33.40;53.50;;;;;;5132548;27;20383;-91
2022/01/01 02:32:43;;;;;;;1.95;0.90;;;32.40;55.30;;;;;;5132500;27;20357;-89
2022/01/01 02:35:13;;;;;;;3.60;0.90;;;31.90;57.10;;;;;;5132480;27;20369;-89
2022/01/01 02:37:40;;;;;;;4.53;0.80;;;32.60;56.70;;;;;;5132360;27;20402;-91
2022/01/01 02:40:09;;;;;;;1.80;0.80;;;33.50;55.80;;;;;;5113690;27;20408;-88
2022/01/01 02:42:39;;;;;;;3.75;0.90;;;33.90;53.50;;;;;;5140995;27;20359;-89
2022/01/01 02:45:09;;;;;;;2.30;0.80;;;34.10;53.10;;;;;;5131970;27;20396;-91
2022/01/01 02:47:36;;;;;;;1.90;0.82;;;34.20;51.30;;;;;;5132306;27;20793;-88
2022/01/01 02:50:04;;;;;;;2.35;0.80;;;34.00;53.20;;;;;;5132405;27;20373;-88
2022/01/01 02:52:31;;;;;;;1.75;0.90;;;34.80;53.40;;;;;;5132289;27;20829;-87
2022/01/01 02:54:58;;;;;;;2.15;0.70;;;36.10;51.00;;;;;;5132285;27;20957;-86
2022/01/01 02:57:26;;;;;;;3.20;0.90;;;36.90;49.70;;;;;;5132141;27;20452;-90
2022/01/01 02:59:53;;;;;;;3.13;0.80;;;37.70;47.70;;;;;;5113506;27;20393;-91
2022/01/01 03:02:20;;;;;;;1.92;0.90;;;37.10;49.10;;;;;;5140022;27;20404;-89
2022/01/01 03:04:47;;;;;;;2.17;0.80;;;37.10;47.50;;;;;;5131856;27;20392;-90
2022/01/01 03:07:14;;;;;;;3.60;0.90;;;37.40;47.50;;;;;;5132493;27;20373;-90
2022/01/01 03:09:41;;;;;;;2.65;0.88;;;37.40;48.50;;;;;;5132146;27;20357;-90
2022/01/01 03:12:10;;;;;;;2.60;0.85;;;38.00;46.80;;;;;;5132134;27;20373;-90
2022/01/01 03:14:37;;;;;;;2.22;0.80;;;37.50;46.10;;;;;;5132096;27;20393;-91
2022/01/01 03:17:06;;;;;;;2.15;0.93;;;36.70;48.40;;;;;;5113847;27;20476;-92
2022/01/01 03:19:33;;;;;;;2.45;0.80;;;37.10;47.10;;;;;;5113682;27;20376;-90
2022/01/01 03:22:01;;;;;;;1.73;0.75;;;38.00;46.70;;;;;;5113438;27;20396;-92
2022/01/01 03:24:28;;;;;;;2.65;0.77;;;38.90;45.60;;;;;;5113148;27;20381;-90
2022/01/01 03:26:55;;;;;;;1.50;0.80;;;39.50;43.10;;;;;;5131916;27;20373;-91
2022/01/01 03:29:22;;;;;;;2.78;0.98;;;39.50;43.10;;;;;;5132411;27;20392;-91
2022/01/01 03:31:49;;;;;;;2.60;1.00;;;39.60;45.20;;;;;;5117709;27;20864;-89
2022/01/01 03:34:17;;;;;;;4.60;1.13;;;39.50;45.90;;;;;;5134455;27;20377;-93
2022/01/01 03:36:44;;;;;;;2.28;0.98;;;38.70;47.00;;;;;;5135035;27;20389;-91
2022/01/01 03:39:11;;;;;;;4.82;1.17;;;37.70;47.70;;;;;;5132155;27;20365;-92
2022/01/01 03:41:38;;;;;;;4.15;1.02;;;36.20;50.40;;;;;;5131553;27;20389;-92
2022/01/01 03:44:05;;;;;;;3.00;1.10;;;35.00;52.80;;;;;;5131941;27;20371;-93
2022/01/01 03:46:33;;;;;;;3.05;1.10;;;33.70;54.50;;;;;;5112765;27;20377;-91
2022/01/01 03:48:59;;;;;;;2.53;1.00;;;33.50;54.80;;;;;;5131139;27;20386;-91
2022/01/01 03:51:27;;;;;;;3.30;1.15;;;33.90;54.70;;;;;;5131393;27;20373;-92
2022/01/01 03:53:53;;;;;;;3.25;1.20;;;34.70;54.20;;;;;;5112853;27;20405;-91
2022/01/01 03:56:20;;;;;;;4.32;1.25;;;35.30;53.20;;;;;;5130919;27;20478;-93
2022/01/01 03:58:47;;;;;;;3.97;1.10;;;35.50;52.90;;;;;;5131007;27;20376;-93
2022/01/01 04:01:14;;;;;;;4.20;1.20;;;35.70;51.70;;;;;;5112980;27;20448;-91
2022/01/01 04:03:43;;;;;;;4.32;1.10;;;35.50;51.90;;;;;;5131253;27;20415;-90
2022/01/01 04:06:10;;;;;;;3.53;1.08;;;35.20;53.20;;;;;;5112514;27;20428;-92
2022/01/01 04:08:37;;;;;;;3.67;1.13;;;35.20;53.10;;;;;;5131239;27;20376;-91
2022/01/01 04:11:04;;;;;;;3.40;0.90;;;35.20;54.00;;;;;;5130828;27;20448;-92
2022/01/01 04:13:31;;;;;;;3.37;1.00;;;35.00;53.30;;;;;;5130259;27;20361;-92
2022/01/01 04:15:58;;;;;;;2.78;1.02;;;35.00;52.90;;;;;;5131388;27;20377;-88
2022/01/01 04:18:29;;;;;;;5.10;1.10;;;35.00;53.50;;;;;;5113522;27;20398;-90
2022/01/01 04:20:56;;;;;;;4.03;1.10;;;34.90;53.00;;;;;;5113522;27;20745;-90
2022/01/01 04:23:23;;;;;;;2.90;1.10;;;34.90;53.20;;;;;;5132736;27;20368;-89
2022/01/01 04:25:50;;;;;;;2.67;0.90;;;34.60;53.30;;;;;;5112739;27;20476;-91
2022/01/01 04:28:18;;;;;;;5.35;1.35;;;34.30;54.30;;;;;;5130899;27;20369;-90
2022/01/01 04:30:45;;;;;;;3.08;1.10;;;34.20;54.70;;;;;;5111861;27;20464;-91
2022/01/01 04:33:12;;;;;;;4.72;1.05;;;34.40;56.10;;;;;;5130348;27;20775;-91
2022/01/01 04:35:39;;;;;;;4.15;1.27;;;34.30;54.60;;;;;;5117216;27;20391;-90
2022/01/01 04:38:12;;;;;;;4.20;1.20;;;34.10;55.50;;;;;;5130342;27;20448;-91
2022/01/01 04:40:39;;;;;;;3.00;0.98;;;33.90;55.00;;;;;;5129461;27;20741;-90
2022/01/01 04:43:06;;;;;;;5.05;1.30;;;34.20;55.80;;;;;;5129678;28;20837;-90
2022/01/01 04:45:33;;;;;;;5.40;1.30;;;34.50;54.90;;;;;;5129403;28;20399;-92
2022/01/01 04:48:00;;;;;;;4.13;1.20;;;34.60;55.40;;;;;;5129586;28;20397;-94
2022/01/01 04:50:27;;;;;;;3.97;1.00;;;34.80;54.70;;;;;;5111092;28;20373;-90
2022/01/01 04:52:56;;;;;;;3.05;1.10;;;34.90;55.10;;;;;;5129602;28;20373;-89
2022/01/01 04:55:24;;;;;;;3.67;1.00;;;35.40;55.20;;;;;;5111753;28;20892;-90
2022/01/01 04:57:51;;;;;;;3.78;1.10;;;35.80;53.10;;;;;;5110464;28;20391;-83
2022/01/01 05:00:18;;;;;;;3.55;1.17;;;35.80;53.90;;;;;;5129306;28;20434;-86
2022/01/01 05:02:44;;;;;;;3.08;1.10;;;35.60;53.10;;;;;;5128658;28;20357;-79
2022/01/01 05:05:11;;;;;;;3.25;1.00;;;35.60;53.50;;;;;;5128747;28;20381;-86
2022/01/01 05:07:39;;;;;;;5.60;1.30;;;35.30;53.20;;;;;;5128531;28;20456;-81
2022/01/01 05:10:06;;;;;;;5.72;1.10;;;34.90;54.80;;;;;;5128502;28;20365;-81
2022/01/01 05:12:33;;;;;;;2.60;1.08;;;34.60;55.30;;;;;;5128471;28;20426;-82
2022/01/01 05:15:00;;;;;;;2.88;1.30;;;34.40;55.20;;;;;;5128613;28;20756;-82
2022/01/01 05:17:27;;;;;;;3.83;1.20;;;34.10;55.70;;;;;;5128280;28;20369;-80
2022/01/01 05:19:54;;;;;;;2.60;1.02;;;33.90;57.10;;;;;;5128366;28;20364;-83
2022/01/01 05:22:21;;;;;;;3.92;1.20;;;33.60;57.40;;;;;;5128343;28;20396;-81
2022/01/01 05:24:48;;;;;;;3.22;1.20;;;33.60;58.00;;;;;;5126911;27;20490;-80
2022/01/01 05:27:15;;;;;;;5.30;1.30;;;33.30;57.80;;;;;;5128289;28;20408;-81
2022/01/01 05:29:42;;;;;;;20.77;14.00;;;33.10;59.70;;;;;;5128087;28;20381;-81
2022/01/01 05:32:09;;;;;;;64.03;54.33;;;32.80;59.60;;;;;;5128161;28;20589;-81
2022/01/01 05:34:36;;;;;;;41.90;32.17;;;33.00;59.40;;;;;;5128074;28;20374;-81
2022/01/01 05:37:03;;;;;;;13.93;7.97;;;33.10;59.70;;;;;;5109832;28;20405;-81
2022/01/01 05:39:30;;;;;;;4.68;2.08;;;33.30;59.30;;;;;;5127921;28;20448;-83
2022/01/01 05:41:58;;;;;;;3.58;1.20;;;33.50;58.20;;;;;;4989998;28;3917429;-80
2022/01/01 05:44:25;;;;;;;3.55;1.20;;;33.30;59.40;;;;;;5128803;28;20429;-82
2022/01/01 05:46:53;;;;;;;7.20;1.40;;;33.00;58.90;;;;;;5128772;28;20377;-80
2022/01/01 05:49:21;;;;;;;4.45;1.20;;;32.50;59.30;;;;;;5128861;28;20359;-80
2022/01/01 05:51:48;;;;;;;5.40;1.48;;;32.10;61.00;;;;;;5128813;28;20450;-82
2022/01/01 05:54:15;;;;;;;6.00;1.23;;;31.90;61.60;;;;;;5128789;28;20365;-82
2022/01/01 05:56:42;;;;;;;5.32;1.20;;;31.60;62.40;;;;;;5110587;28;20400;-80
2022/01/01 05:59:09;;;;;;;4.07;1.10;;;31.20;63.10;;;;;;5128815;28;20381;-78
2022/01/01 06:01:36;;;;;;;4.77;1.30;;;31.00;64.00;;;;;;5128661;28;20893;-80
2022/01/01 06:04:03;;;;;;;2.67;1.10;;;30.80;64.40;;;;;;5128531;28;20373;-78
2022/01/01 06:06:30;;;;;;;4.90;1.20;;;30.80;64.50;;;;;;5128670;28;20381;-79
2022/01/01 06:08:57;;;;;;;6.63;1.42;;;30.70;65.70;;;;;;5128794;28;20369;-79
2022/01/01 06:11:24;;;;;;;3.70;1.30;;;30.70;64.60;;;;;;5110408;28;20388;-81
2022/01/01 06:13:51;;;;;;;4.18;1.30;;;30.70;65.30;;;;;;5128466;28;20420;-80
2022/01/01 06:16:18;;;;;;;7.13;1.40;;;30.70;64.60;;;;;;5128473;28;20365;-79
2022/01/01 06:18:45;;;;;;;4.82;1.33;;;30.60;65.90;;;;;;5128566;28;20384;-79
2022/01/01 06:21:12;;;;;;;5.07;1.40;;;30.70;65.60;;;;;;5128576;28;20736;-79
2022/01/01 06:23:40;;;;;;;4.63;1.23;;;30.70;66.20;;;;;;5128709;28;20380;-80
2022/01/01 06:26:07;;;;;;;3.95;1.20;;;30.70;66.20;;;;;;5128366;28;20393;-79
2022/01/01 06:28:35;;;;;;;4.10;1.33;;;30.50;67.40;;;;;;5128554;28;20853;-81
2022/01/01 06:31:02;;;;;;;5.55;1.30;;;30.20;68.00;;;;;;5128284;28;20403;-79
2022/01/01 06:33:29;;;;;;;3.95;1.25;;;30.20;67.00;;;;;;5128315;28;20449;-80
2022/01/01 06:35:56;;;;;;;5.72;1.48;;;30.40;66.40;;;;;;5130019;27;20424;-80
2022/01/01 06:38:23;;;;;;;5.03;1.30;;;30.40;66.70;;;;;;5131968;27;20771;-80
2022/01/01 06:40:51;;;;;;;5.45;1.40;;;30.30;67.50;;;;;;5131805;27;20890;-80
2022/01/01 06:43:21;;;;;;;3.93;1.30;;;30.20;67.70;;;;;;5131849;27;20365;-80
2022/01/01 06:45:49;;;;;;;8.37;1.73;;;30.10;68.00;;;;;;5131850;27;20396;-81
2022/01/01 06:48:16;;;;;;;5.38;1.50;;;30.00;68.90;;;;;;5131844;27;20447;-81
2022/01/01 06:50:43;;;;;;;4.93;1.40;;;30.00;70.00;;;;;;5132297;27;20809;-81
2022/01/01 06:53:11;;;;;;;4.80;1.30;;;29.90;70.00;;;;;;5133011;27;20371;-80
2022/01/01 06:55:38;;;;;;;7.05;1.50;;;29.90;69.60;;;;;;5131824;27;20365;-82
2022/01/01 06:58:05;;;;;;;7.57;1.60;;;29.90;70.70;;;;;;5131724;27;20377;-82
2022/01/01 07:00:32;;;;;;;5.30;1.40;;;29.90;69.70;;;;;;5131637;27;20365;-78
2022/01/01 07:02:59;;;;;;;5.60;1.55;;;30.00;70.30;;;;;;5131641;27;20375;-79
2022/01/01 07:05:26;;;;;;;5.47;1.50;;;30.00;70.30;;;;;;5131447;27;20430;-80
2022/01/01 07:07:53;;;;;;;5.28;1.50;;;30.00;71.40;;;;;;5131563;27;20365;-79
2022/01/01 07:10:20;;;;;;;5.70;1.58;;;29.70;72.00;;;;;;5131425;27;20372;-79
2022/01/01 07:12:47;;;;;;;8.43;1.80;;;29.60;72.10;;;;;;5131380;27;20358;-79
2022/01/01 07:15:17;;;;;;;5.85;1.50;;;29.60;73.10;;;;;;5131183;27;20737;-77
2022/01/01 07:17:45;;;;;;;6.57;1.60;;;29.50;74.30;;;;;;5131279;27;20840;-79
2022/01/01 07:20:12;;;;;;;8.85;1.70;;;29.50;74.30;;;;;;5131284;27;20377;-78
2022/01/01 07:22:43;;;;;;;7.20;1.70;;;29.00;76.10;;;;;;5131191;27;20357;-79
2022/01/01 07:25:12;;;;;;;7.55;1.92;;;28.80;77.00;;;;;;5131169;27;20393;-79
2022/01/01 07:27:40;;;;;;;7.03;1.80;;;28.90;78.30;;;;;;5131121;27;20787;-79
2022/01/01 07:30:08;;;;;;;5.97;1.70;;;28.90;78.20;;;;;;5131149;27;20461;-82
2022/01/01 07:32:40;;;;;;;6.05;2.10;;;29.10;78.60;;;;;;5131009;27;20376;-82
2022/01/01 07:35:07;;;;;;;6.63;1.70;;;29.30;78.00;;;;;;5130860;27;20381;-82
2022/01/01 07:37:34;;;;;;;6.03;1.85;;;29.60;76.90;;;;;;5112660;27;20373;-83
2022/01/01 07:40:02;;;;;;;6.97;1.70;;;30.00;77.40;;;;;;5112355;27;20396;-83
2022/01/01 07:42:29;;;;;;;5.97;1.65;;;30.30;75.10;;;;;;5131117;27;20460;-83
2022/01/01 07:44:57;;;;;;;5.77;1.70;;;30.40;74.00;;;;;;5130884;27;20786;-83
2022/01/01 07:47:24;;;;;;;6.07;1.75;;;30.40;74.10;;;;;;5129722;27;20702;-83
2022/01/01 07:49:51;;;;;;;7.55;1.92;;;30.30;74.70;;;;;;5130752;27;20442;-83
2022/01/01 07:52:18;;;;;;;6.93;2.40;;;30.30;74.60;;;;;;5130766;27;20388;-79
2022/01/01 07:54:45;;;;;;;7.57;1.90;;;30.40;75.50;;;;;;5130638;27;20368;-83
2022/01/01 07:57:12;;;;;;;6.25;1.63;;;30.50;74.10;;;;;;5130681;27;20365;-82
2022/01/01 07:59:39;;;;;;;5.75;1.60;;;30.70;73.30;;;;;;5130876;27;20380;-81
2022/01/01 08:02:06;;;;;;;7.68;2.00;;;30.70;74.20;;;;;;5130502;27;20431;-82
2022/01/01 08:04:33;;;;;;;5.20;1.63;;;30.80;73.80;;;;;;5130260;27;20485;-81
2022/01/01 08:07:01;;;;;;;6.07;1.83;;;31.10;72.50;;;;;;5130336;27;20381;-82
2022/01/01 08:09:29;;;;;;;6.28;1.90;;;31.10;71.90;;;;;;5130140;27;20760;-80
2022/01/01 08:11:56;;;;;;;7.35;1.83;;;31.20;71.70;;;;;;5130202;27;20373;-80
2022/01/01 08:14:23;;;;;;;8.10;2.00;;;31.00;71.30;;;;;;5130167;27;20405;-81
2022/01/01 08:17:04;;;;;;;7.53;1.90;;;31.00;71.90;;;;;;5129959;27;20373;-81
2022/01/01 08:19:33;;;;;;;5.03;1.60;;;30.80;71.20;;;;;;5130271;27;20359;-81
2022/01/01 08:22:00;;;;;;;7.68;1.67;;;30.60;72.00;;;;;;5130040;27;20376;-80
2022/01/01 08:24:27;;;;;;;6.53;1.70;;;30.60;71.50;;;;;;5129844;27;20391;-80
2022/01/01 08:26:54;;;;;;;4.45;1.52;;;30.60;71.00;;;;;;5129825;27;20390;-81
2022/01/01 08:29:22;;;;;;;6.13;1.67;;;30.60;70.00;;;;;;5129872;27;20362;-79
2022/01/01 08:31:51;;;;;;;7.97;1.70;;;30.00;71.10;;;;;;5130122;27;20404;-81
2022/01/01 08:34:19;;;;;;;7.90;1.55;;;29.90;72.90;;;;;;5112102;27;20361;-81
2022/01/01 08:36:46;;;;;;;4.28;1.35;;;29.90;71.60;;;;;;5129692;27;20555;-81
2022/01/01 08:39:14;;;;;;;6.00;1.80;;;29.80;72.30;;;;;;5129721;27;20365;-81
2022/01/01 08:41:42;;;;;;;7.28;1.80;;;29.40;74.10;;;;;;5129555;27;20463;-80
2022/01/01 08:44:10;;;;;;;5.68;1.50;;;29.20;74.70;;;;;;5129780;27;20872;-82
2022/01/01 08:46:36;;;;;;;7.20;1.50;;;28.80;75.40;;;;;;5129551;27;20372;-80
2022/01/01 08:49:05;;;;;;;8.32;1.80;;;28.60;76.20;;;;;;5129658;27;20361;-80
2022/01/01 08:51:35;;;;;;;4.80;1.50;;;28.30;77.60;;;;;;5129551;27;20386;-81
2022/01/01 08:54:03;;;;;;;5.20;1.60;;;28.10;78.60;;;;;;5129712;27;20369;-80
2022/01/01 08:56:32;;;;;;;6.65;1.60;;;27.90;79.30;;;;;;5129567;27;20372;-80
2022/01/01 08:58:59;;;;;;;5.57;1.52;;;27.70;80.60;;;;;;5129182;27;20373;-80
2022/01/01 09:01:26;;;;;;;6.20;1.60;;;27.40;81.80;;;;;;5129385;27;20373;-82
2022/01/01 09:03:54;;;;;;;7.32;1.70;;;27.30;83.50;;;;;;5129402;27;20404;-81
2022/01/01 09:06:21;;;;;;;6.60;1.77;;;27.00;85.50;;;;;;5129191;27;20393;-81
2022/01/01 09:08:48;;;;;;;6.40;1.60;;;26.90;86.90;;;;;;5129542;27;20365;-81
2022/01/01 09:11:15;;;;;;;8.30;1.92;;;26.70;87.80;;;;;;5129421;27;20377;-80
2022/01/01 09:13:43;;;;;;;7.82;1.80;;;26.60;88.60;;;;;;5129221;27;20379;-80
2022/01/01 09:16:17;;;;;;;10.23;1.90;;;26.50;89.90;;;;;;5129265;27;20381;-80
2022/01/01 09:18:46;;;;;;;8.13;1.65;;;26.40;90.40;;;;;;5129459;27;20357;-80
2022/01/01 09:21:13;;;;;;;7.35;1.90;;;26.20;90.90;;;;;;5129684;27;20373;-80
2022/01/01 09:23:41;;;;;;;9.65;1.95;;;26.10;91.70;;;;;;5129567;27;20426;-81
2022/01/01 09:26:08;;;;;;;6.63;1.83;;;25.90;92.40;;;;;;5128989;28;20412;-80
2022/01/01 09:28:35;;;;;;;8.33;1.80;;;25.80;93.00;;;;;;5128846;28;20365;-80
2022/01/01 09:31:03;;;;;;;8.02;1.67;;;25.60;93.60;;;;;;5128904;28;20365;-81
2022/01/01 09:33:31;;;;;;;11.55;2.00;;;25.50;94.40;;;;;;5128813;28;20365;-80
2022/01/01 09:36:00;;;;;;;8.32;2.03;;;25.50;94.80;;;;;;5128990;28;20393;-81
2022/01/01 09:38:27;;;;;;;8.57;2.22;;;25.50;95.50;;;;;;5128955;28;20373;-82
2022/01/01 09:40:55;;;;;;;11.27;2.10;;;25.40;95.80;;;;;;5128760;28;20381;-83
2022/01/01 09:43:24;;;;;;;8.50;1.92;;;25.30;96.30;;;;;;5129053;28;20391;-81
2022/01/01 09:45:55;;;;;;;10.15;2.10;;;25.20;96.70;;;;;;5128728;28;20397;-80
2022/01/01 09:48:23;;;;;;;9.18;1.88;;;25.10;97.40;;;;;;5128878;28;20368;-82
2022/01/01 09:50:54;;;;;;;13.27;2.00;;;24.90;98.00;;;;;;5128929;28;20958;-85
2022/01/01 09:53:27;;;;;;;8.82;2.05;;;24.90;98.50;;;;;;5110466;28;20380;-82
2022/01/01 09:55:56;;;;;;;11.43;2.20;;;24.90;98.80;;;;;;5110417;28;20434;-84
2022/01/01 09:58:29;;;;;;;9.98;1.90;;;24.80;99.00;;;;;;5128905;28;20365;-82
2022/01/01 10:00:57;;;;;;;9.82;2.00;;;24.70;99.40;;;;;;5129000;28;20353;-81
2022/01/01 10:03:44;;;;;;;9.38;2.15;;;24.70;99.80;;;;;;5128885;28;20808;-81
2022/01/01 10:06:17;;;;;;;8.80;1.90;;;24.60;99.90;;;;;;5128652;28;20910;-82
2022/01/01 10:08:58;;;;;;;9.52;1.90;;;24.70;99.90;;;;;;5128846;28;20357;-78
2022/01/01 10:11:26;;;;;;;8.50;2.10;;;24.60;99.90;;;;;;5131125;27;20389;-79
2022/01/01 10:13:54;;;;;;;10.57;2.53;;;24.60;99.90;;;;;;5132522;27;20442;-79
2022/01/01 10:16:21;;;;;;;8.25;1.90;;;24.50;99.90;;;;;;5132537;27;20368;-79
2022/01/01 10:18:53;;;;;;;9.43;2.20;;;24.50;99.90;;;;;;5132370;27;20376;-80
2022/01/01 10:21:22;;;;;;;12.70;2.30;;;24.40;99.90;;;;;;5132701;27;20362;-80
2022/01/01 10:23:55;;;;;;;10.00;2.00;;;24.40;99.90;;;;;;5132503;27;20755;-80
2022/01/01 10:29:28;;;;;;;10.37;2.33;;;24.40;99.90;;;;;;5132853;27;20391;-80
2022/01/01 10:32:04;;;;;;;12.27;2.50;;;24.30;99.90;;;;;;5132345;27;20380;-80
2022/01/01 10:34:51;;;;;;;11.60;2.50;;;24.10;99.90;;;;;;5132268;27;20418;-80
2022/01/01 10:37:18;;;;;;;8.55;2.10;;;24.10;99.90;;;;;;5132088;27;20357;-80
2022/01/01 10:39:55;;;;;;;9.68;2.30;;;24.10;99.90;;;;;;5131803;27;20373;-79
2022/01/01 10:42:22;;;;;;;9.32;2.45;;;24.10;99.90;;;;;;5132186;27;20369;-78
2022/01/01 10:44:53;;;;;;;11.32;2.45;;;24.10;99.90;;;;;;5131933;27;20859;-80
2022/01/01 10:47:27;;;;;;;12.15;2.50;;;24.00;99.90;;;;;;5132159;27;20864;-80
2022/01/01 10:52:45;;;;;;;10.20;2.35;;;23.90;99.90;;;;;;5132317;27;20881;-80
2022/01/01 10:55:14;;;;;;;11.63;2.75;;;23.80;99.90;;;;;;5131798;27;20376;-80
2022/01/01 10:57:43;;;;;;;13.27;2.63;;;23.90;99.90;;;;;;5132485;27;20456;-79
2022/01/01 11:00:13;;;;;;;11.98;2.70;;;23.80;99.90;;;;;;5131772;27;20527;-80
2022/01/01 11:02:44;;;;;;;12.80;2.60;;;23.70;99.90;;;;;;5131600;27;20370;-79
2022/01/01 11:05:12;;;;;;;10.50;2.60;;;23.70;99.90;;;;;;5131581;27;20943;-79
2022/01/01 11:07:49;;;;;;;15.98;3.20;;;23.60;99.90;;;;;;5131587;27;20361;-80
2022/01/01 11:10:18;;;;;;;16.40;3.10;;;23.60;99.90;;;;;;5132152;27;20377;-80
2022/01/01 11:12:45;;;;;;;10.63;2.60;;;23.60;99.90;;;;;;5131643;27;20369;-79
2022/01/01 11:15:13;;;;;;;12.73;3.30;;;23.60;99.90;;;;;;5131459;27;20445;-79
2022/01/01 11:17:42;;;;;;;13.88;2.90;;;23.50;99.90;;;;;;5131374;27;20408;-79
2022/01/01 11:20:10;;;;;;;11.75;3.40;;;23.50;99.90;;;;;;5131253;27;20899;-80
2022/01/01 11:22:37;;;;;;;10.73;3.33;;;23.50;99.90;;;;;;5131269;27;20376;-79
2022/01/01 11:25:05;;;;;;;13.00;3.22;;;23.50;99.90;;;;;;5131285;27;20420;-80
2022/01/01 11:27:32;;;;;;;13.10;3.07;;;23.40;99.90;;;;;;5131191;27;20373;-80
2022/01/01 11:30:01;;;;;;;11.65;3.40;;;23.40;99.90;;;;;;5131093;27;20717;-80
2022/01/01 11:32:37;;;;;;;13.40;3.05;;;23.40;99.90;;;;;;5131216;27;20376;-80
2022/01/01 11:35:10;;;;;;;14.35;3.42;;;23.40;99.90;;;;;;5131230;27;20365;-80
2022/01/01 11:37:57;;;;;;;11.13;3.40;;;23.40;99.90;;;;;;5131806;27;20380;-80
2022/01/01 11:40:25;;;;;;;13.45;3.30;;;23.30;99.90;;;;;;5130835;27;20381;-80
2022/01/01 11:42:52;;;;;;;11.77;3.17;;;23.30;99.90;;;;;;5130952;27;20373;-80
2022/01/01 11:45:46;;;;;;;20.83;3.40;;;23.20;99.90;;;;;;5130943;27;20377;-79
2022/01/01 11:48:33;;;;;;;13.30;3.30;;;23.20;99.90;;;;;;5128708;27;20389;-80
2022/01/01 11:51:19;;;;;;;15.38;2.97;;;23.20;99.90;;;;;;5130849;27;20841;-80
2022/01/01 11:54:09;;;;;;;12.35;3.00;;;23.10;99.90;;;;;;5130863;27;20946;-80
2022/01/01 11:57:07;;;;;;;13.13;2.80;;;23.10;99.90;;;;;;5130490;27;20366;-80
2022/01/01 11:59:41;;;;;;;14.50;3.20;;;23.10;99.90;;;;;;5130764;27;20361;-80
2022/01/01 12:02:19;;;;;;;14.32;2.90;;;23.00;99.90;;;;;;5130457;27;20410;-80
2022/01/01 12:04:48;;;;;;;14.30;2.80;;;22.90;99.90;;;;;;5130435;27;20385;-80
2022/01/01 12:07:21;;;;;;;15.65;2.80;;;22.90;99.90;;;;;;5130574;27;20424;-81
2022/01/01 12:10:06;;;;;;;16.17;3.00;;;22.90;99.90;;;;;;5131023;27;20349;-80
2022/01/01 12:12:38;;;;;;;13.37;2.83;;;22.80;99.90;;;;;;5130984;27;20362;-81
2022/01/01 12:15:09;;;;;;;12.05;2.72;;;22.70;99.90;;;;;;5130799;27;20357;-81
2022/01/01 12:18:06;;;;;;;14.02;2.60;;;22.70;99.90;;;;;;5131149;27;20370;-80
2022/01/01 12:20:46;;;;;;;15.60;3.00;;;22.70;99.90;;;;;;5117821;27;20374;-81
2022/01/01 12:23:24;;;;;;;14.02;2.53;;;22.60;99.90;;;;;;5129945;27;20390;-80
2022/01/01 12:25:53;;;;;;;12.38;2.80;;;22.60;99.90;;;;;;5130171;27;20744;-80
2022/01/01 12:28:28;;;;;;;10.20;2.63;;;22.60;99.90;;;;;;5111942;27;20805;-80
2022/01/01 12:31:08;;;;;;;13.60;2.67;;;22.50;99.90;;;;;;5130041;27;20373;-80
2022/01/01 12:33:41;;;;;;;13.35;3.08;;;22.50;99.90;;;;;;5130024;27;20357;-80
2022/01/01 12:36:12;;;;;;;13.75;3.80;;;22.40;99.90;;;;;;5129951;27;20369;-80
2022/01/01 12:38:40;;;;;;;13.15;3.38;;;22.40;99.90;;;;;;5129843;27;20365;-79
2022/01/01 12:41:15;;;;;;;12.15;2.95;;;22.40;99.90;;;;;;5129495;27;20417;-80
2022/01/01 12:43:56;;;;;;;12.82;3.00;;;22.30;99.90;;;;;;5129676;27;20909;-80
2022/01/01 12:46:25;;;;;;;14.02;2.67;;;22.30;99.90;;;;;;5129640;27;20903;-80
2022/01/01 12:48:55;;;;;;;11.77;2.80;;;22.20;99.90;;;;;;5129723;27;20812;-81
2022/01/01 12:51:23;;;;;;;14.40;3.17;;;22.20;99.90;;;;;;5129864;27;20417;-80
2022/01/01 12:54:16;;;;;;;13.10;3.35;;;22.20;99.90;;;;;;5129620;27;20897;-80
2022/01/01 12:56:45;;;;;;;13.75;3.15;;;22.10;99.90;;;;;;5104641;27;20385;-80
2022/01/01 12:59:15;;;;;;;11.32;3.17;;;22.10;99.90;;;;;;5129296;27;20373;-80
2022/01/01 13:01:44;;;;;;;12.13;3.15;;;22.10;99.90;;;;;;5129477;27;20373;-80
2022/01/01 13:04:12;;;;;;;14.50;3.03;;;22.00;99.90;;;;;;5129406;27;20927;-79